Time,TemperatureF,DewpointF,PressureIn,WindDirection,WindDirectionDegrees,WindSpeedMPH,WindSpeedGustMPH,Humidity,HourlyPrecipIn,Conditions,Clouds,dailyrainin,SoftwareType,DateUTC
2013-07-13 00:02:00,46.0,42.0,30.63,NE,35,4.0,6.0,85,0.00,,,0.08,,2013-07-13 07:02:00,
2013-07-13 08:02:00,49.0,40.0,30.67,SSE,151,3.0,9.0,71,0.00,,,0.08,,2013-07-13 15:02:00,
2013-07-13 08:12:00,49.0,40.0,30.67,SSE,157,5.0,8.0,70,0.00,,,0.08,,2013-07-13 15:12:00,
2013-07-13 08:33:00,50.0,42.0,30.66,SSE,163,4.0,7.0,73,0.00,,,0.08,,2013-07-13 15:33:00,
2013-07-13 08:53:00,50.0,42.0,30.68,South,172,3.0,7.0,73,0.00,,,0.08,,2013-07-13 15:53:00,
2013-07-13 09:01:00,50.0,42.0,30.67,South,174,4.0,8.0,74,0.00,,,0.08,,2013-07-13 16:01:00,
2013-07-13 09:11:00,51.0,43.0,30.67,SSE,149,3.0,7.0,75,0.00,,,0.08,,2013-07-13 16:11:00,
2013-07-13 09:32:00,51.0,43.0,30.67,SSE,166,5.0,8.0,74,0.00,,,0.08,,2013-07-13 16:32:00,
2013-07-13 09:43:00,52.0,44.0,30.67,South,185,3.0,9.0,74,0.00,,,0.08,,2013-07-13 16:43:00,
2013-07-13 09:53:00,52.0,45.0,30.68,South,173,3.0,10.0,77,0.00,,,0.08,,2013-07-13 16:53:00,
2013-07-13 10:01:00,52.0,45.0,30.68,SSW,196,4.0,9.0,78,0.00,,,0.08,,2013-07-13 17:01:00,
2013-07-13 10:11:00,50.0,44.0,30.68,SSW,195,5.0,11.0,81,0.00,,,0.08,,2013-07-13 17:11:00,
2013-07-13 10:33:00,52.0,44.0,30.69,SSW,193,4.0,12.0,74,0.00,,,0.08,,2013-07-13 17:33:00,
2013-07-13 10:42:00,52.0,44.0,30.69,South,190,2.0,13.0,73,0.00,,,0.08,,2013-07-13 17:42:00,
2013-07-13 10:52:00,52.0,42.0,30.69,SSE,168,6.0,11.0,69,0.00,,,0.08,,2013-07-13 17:52:00,
2013-07-13 11:01:00,54.0,44.0,30.69,SSW,203,5.0,10.0,68,0.00,,,0.08,,2013-07-13 18:01:00,
2013-07-13 11:11:00,53.0,42.0,30.69,SSW,199,3.0,10.0,66,0.00,,,0.08,,2013-07-13 18:11:00,
2013-07-13 11:32:00,54.0,43.0,30.69,South,183,6.0,11.0,67,0.00,,,0.08,,2013-07-13 18:32:00,
2013-07-13 11:43:00,54.0,45.0,30.69,South,174,7.0,13.0,71,0.00,,,0.08,,2013-07-13 18:43:00,
2013-07-13 11:52:00,54.0,43.0,30.69,South,188,6.0,13.0,67,0.00,,,0.08,,2013-07-13 18:52:00,
2013-07-13 12:01:00,52.0,44.0,30.69,South,175,3.0,8.0,73,0.00,,,0.08,,2013-07-13 19:01:00,
2013-07-13 12:11:00,53.0,44.0,30.69,ESE,107,2.0,8.0,72,0.00,,,0.08,,2013-07-13 19:11:00,
2013-07-13 12:32:00,53.0,43.0,30.68,South,185,4.0,11.0,70,0.00,,,0.08,,2013-07-13 19:32:00,
2013-07-13 12:44:00,54.0,44.0,30.68,South,175,6.0,10.0,70,0.00,,,0.08,,2013-07-13 19:44:00,
2013-07-13 12:52:00,54.0,43.0,30.68,South,181,7.0,12.0,65,0.00,,,0.08,,2013-07-13 19:52:00,
2013-07-13 13:01:00,54.0,43.0,30.68,SSW,207,5.0,12.0,65,0.00,,,0.08,,2013-07-13 20:01:00,
2013-07-13 13:11:00,55.0,44.0,30.68,SSW,208,4.0,10.0,67,0.00,,,0.08,,2013-07-13 20:11:00,
2013-07-13 13:33:00,55.0,46.0,30.67,WSW,240,5.0,10.0,72,0.00,,,0.08,,2013-07-13 20:33:00,
2013-07-13 13:42:00,55.0,48.0,30.68,SW,227,3.0,9.0,76,0.00,,,0.08,,2013-07-13 20:42:00,
2013-07-13 13:52:00,54.0,46.0,30.68,SSW,205,2.0,10.0,73,0.00,,,0.08,,2013-07-13 20:52:00,
2013-07-13 14:01:00,53.0,47.0,30.67,WSW,238,2.0,6.0,80,0.01,,,0.09,,2013-07-13 21:01:00,
2013-07-13 14:11:00,52.0,47.0,30.67,SSW,206,1.0,5.0,83,0.01,,,0.09,,2013-07-13 21:11:00,
2013-07-13 14:22:00,51.0,46.0,30.67,SW,225,3.0,6.0,83,0.01,,,0.09,,2013-07-13 21:22:00,
2013-07-13 14:32:00,51.0,47.0,30.67,South,169,4.0,7.0,85,0.03,,,0.11,,2013-07-13 21:32:00,
2013-07-13 14:42:00,51.0,47.0,30.67,North,0,0.0,7.0,87,0.04,,,0.12,,2013-07-13 21:42:00,
2013-07-13 14:53:00,48.0,45.0,30.68,NNE,14,7.0,13.0,90,0.25,,,0.33,,2013-07-13 21:53:00,
2013-07-13 15:01:00,46.0,43.0,30.67,North,6,10.0,13.0,90,0.38,,,0.46,,2013-07-13 22:01:00,
2013-07-13 15:11:00,45.0,43.0,30.67,NNE,30,8.0,13.0,91,0.43,,,0.52,,2013-07-13 22:11:00,
2013-07-13 15:32:00,48.0,45.0,30.66,NW,322,3.0,11.0,90,0.50,,,0.61,,2013-07-13 22:32:00,
2013-07-13 15:43:00,49.0,46.0,30.66,NNW,339,5.0,7.0,88,0.48,,,0.62,,2013-07-13 22:43:00,
2013-07-13 15:53:00,49.0,46.0,30.66,NNW,337,4.0,8.0,89,0.44,,,0.63,,2013-07-13 22:53:00,
2013-07-13 16:01:00,51.0,48.0,30.65,NW,317,5.0,11.0,91,0.19,,,0.65,,2013-07-13 23:01:00,
2013-07-13 16:11:00,51.0,48.0,30.66,WNW,294,5.0,11.0,88,0.08,,,0.66,,2013-07-13 23:11:00,
2013-07-13 16:32:00,50.0,47.0,30.66,NNW,333,5.0,12.0,91,0.06,,,0.67,,2013-07-13 23:32:00,
2013-07-13 16:42:00,50.0,47.0,30.66,WNW,297,8.0,16.0,88,0.06,,,0.68,,2013-07-13 23:42:00,
2013-07-13 16:52:00,51.0,48.0,30.66,NW,326,5.0,12.0,91,0.05,,,0.69,,2013-07-13 23:52:00,
2013-07-13 17:01:00,51.0,48.0,30.66,NNW,328,6.0,11.0,90,0.05,,,0.69,,2013-07-14 00:01:00,
2013-07-13 17:11:00,51.0,48.0,30.66,NNW,328,6.0,11.0,90,0.05,,,0.69,,2013-07-14 00:11:00,
2013-07-13 17:21:00,52.0,49.0,30.65,NW,317,6.0,13.0,89,0.03,,,0.69,,2013-07-14 00:21:00,
2013-07-13 17:32:00,53.0,50.0,30.64,NW,312,5.0,12.0,88,0.02,,,0.70,,2013-07-14 00:32:00,
2013-07-13 17:42:00,53.0,49.0,30.64,WNW,302,5.0,11.0,85,0.02,,,0.69,,2013-07-14 00:42:00,
2013-07-13 17:52:00,53.0,48.0,30.64,NW,308,5.0,11.0,83,0.01,,,0.69,,2013-07-14 00:52:00,
2013-07-13 18:01:00,54.0,50.0,30.64,NW,325,4.0,11.0,85,0.01,,,0.68,,2013-07-14 01:01:00,
2013-07-13 18:11:00,54.0,49.0,30.64,NNW,339,3.0,7.0,83,0.01,,,0.68,,2013-07-14 01:11:00,
2013-07-13 18:32:00,53.0,48.0,30.66,North,0,0.0,7.0,83,0.00,,,0.66,,2013-07-14 01:32:00,
2013-07-13 18:43:00,53.0,44.0,30.66,SSW,196,1.0,4.0,72,0.00,,,0.64,,2013-07-14 01:43:00,
2013-07-13 18:52:00,52.0,43.0,30.66,SSE,160,4.0,7.0,71,0.00,,,0.63,,2013-07-14 01:52:00,
2013-07-13 19:01:00,50.0,42.0,30.66,SSE,158,4.0,10.0,74,0.00,,,0.63,,2013-07-14 02:01:00,
2013-07-13 19:11:00,50.0,42.0,30.65,SSE,153,4.0,8.0,74,0.00,,,0.62,,2013-07-14 02:11:00,
2013-07-13 19:22:00,50.0,42.0,30.65,SSE,166,3.0,6.0,73,0.00,,,0.62,,2013-07-14 02:22:00,
2013-07-13 19:32:00,50.0,42.0,30.66,SSE,168,1.0,4.0,74,0.00,,,0.62,,2013-07-14 02:32:00,
2013-07-13 19:42:00,51.0,43.0,30.66,West,263,1.0,3.0,73,0.00,,,0.62,,2013-07-14 02:42:00,
2013-07-13 19:53:00,51.0,43.0,30.66,NW,304,2.0,3.0,73,0.00,,,0.62,,2013-07-14 02:53:00,
2013-07-13 20:01:00,51.0,42.0,30.66,North,355,4.0,6.0,72,0.00,,,0.62,,2013-07-14 03:01:00,
2013-07-13 20:11:00,51.0,41.0,30.66,North,0,0.0,5.0,68,0.00,,,0.62,,2013-07-14 03:11:00,
2013-07-13 20:22:00,51.0,38.0,30.67,WNW,291,1.0,3.0,62,0.00,,,0.62,,2013-07-14 03:22:00,
2013-07-13 20:32:00,51.0,38.0,30.67,SW,231,2.0,4.0,61,0.00,,,0.62,,2013-07-14 03:32:00,
2013-07-13 20:43:00,51.0,38.0,30.67,West,274,1.0,3.0,62,0.00,,,0.62,,2013-07-14 03:43:00,
2013-07-13 20:53:00,51.0,38.0,30.68,South,188,3.0,4.0,60,0.00,,,0.62,,2013-07-14 03:53:00,
2013-07-13 21:02:00,52.0,39.0,30.68,SSE,167,4.0,5.0,60,0.00,,,0.62,,2013-07-14 04:02:00,
2013-07-13 21:11:00,52.0,39.0,30.69,South,172,4.0,6.0,60,0.00,,,0.62,,2013-07-14 04:11:00,
2013-07-13 21:22:00,52.0,38.0,30.69,SSE,163,4.0,6.0,59,0.00,,,0.62,,2013-07-14 04:22:00,
2013-07-13 21:32:00,52.0,38.0,30.70,SSE,163,4.0,6.0,59,0.00,,,0.62,,2013-07-14 04:32:00,
2013-07-13 21:42:00,52.0,38.0,30.70,SSE,165,4.0,5.0,58,0.00,,,0.62,,2013-07-14 04:42:00,
2013-07-13 21:53:00,52.0,38.0,30.70,SSE,166,4.0,6.0,59,0.00,,,0.62,,2013-07-14 04:53:00,
2013-07-13 22:02:00,51.0,38.0,30.70,SSE,159,5.0,7.0,60,0.00,,,0.62,,2013-07-14 05:02:00,
2013-07-13 22:11:00,51.0,38.0,30.70,SE,141,4.0,7.0,61,0.00,,,0.62,,2013-07-14 05:11:00,
2013-07-13 22:32:00,51.0,38.0,30.68,SE,136,5.0,8.0,61,0.00,,,0.62,,2013-07-14 05:32:00,
2013-07-13 22:43:00,51.0,39.0,30.68,SE,135,4.0,8.0,64,0.00,,,0.62,,2013-07-14 05:43:00,
2013-07-13 22:53:00,50.0,40.0,30.68,SE,139,5.0,9.0,68,0.00,,,0.62,,2013-07-14 05:53:00,
2013-07-13 23:01:00,50.0,41.0,30.70,SE,135,5.0,8.0,70,0.00,,,0.62,,2013-07-14 06:01:00,
2013-07-13 23:11:00,50.0,40.0,30.70,SE,140,5.0,8.0,69,0.00,,,0.62,,2013-07-14 06:11:00,
2013-07-13 23:22:00,50.0,41.0,30.69,SE,142,5.0,8.0,72,0.00,,,0.62,,2013-07-14 06:22:00,
2013-07-13 23:32:00,50.0,41.0,30.69,SE,133,6.0,9.0,70,0.00,,,0.62,,2013-07-14 06:32:00,
2013-07-13 23:42:00,50.0,41.0,30.69,SE,142,5.0,8.0,71,0.00,,,0.62,,2013-07-14 06:42:00,
2013-07-13 23:53:00,51.0,40.0,30.69,SSE,148,6.0,9.0,66,0.00,,,0.62,,2013-07-14 06:53:00,